sensor_id;sensor_type;location;lat;lon;timestamp;P1;durP1;ratioP1;P2;durP2;ratioP2
72478;SDS011;60658;52.246;5.258;2022-10-15T05:51:06;73.75;;;32.08;;
72478;SDS011;60658;52.246;5.258;2022-10-15T05:52:07;70.28;;;34.90;;
72478;SDS011;60658;52.246;5.258;2022-10-15T05:53:08;71.18;;;36.60;;
72478;SDS011;60658;52.246;5.258;2022-10-15T05:54:08;81.07;;;37.90;;
72478;SDS011;60658;52.246;5.258;2022-10-15T05:55:09;75.75;;;35.90;;
72478;SDS011;60658;52.246;5.258;2022-10-15T05:56:10;79.53;;;37.33;;
72478;SDS011;60658;52.246;5.258;2022-10-15T05:57:11;78.93;;;37.78;;
72478;SDS011;60658;52.246;5.258;2022-10-15T05:58:12;91.07;;;39.83;;
72478;SDS011;60658;52.246;5.258;2022-10-15T05:59:13;79.68;;;38.30;;
72478;SDS011;60658;52.246;5.258;2022-10-15T06:00:16;75.32;;;36.38;;
72478;SDS011;60658;52.246;5.258;2022-10-15T06:01:19;80.07;;;38.30;;
72478;SDS011;60658;52.246;5.258;2022-10-15T06:02:26;85.57;;;39.25;;
72478;SDS011;60658;52.246;5.258;2022-10-15T06:03:26;74.38;;;37.15;;
72478;SDS011;60658;52.246;5.258;2022-10-15T06:04:29;81.38;;;37.40;;
72478;SDS011;60658;52.246;5.258;2022-10-15T06:05:30;92.00;;;40.28;;
72478;SDS011;60658;52.246;5.258;2022-10-15T06:06:33;81.53;;;39.33;;
72478;SDS011;60658;52.246;5.258;2022-10-15T06:07:33;81.25;;;38.40;;
72478;SDS011;60658;52.246;5.258;2022-10-15T06:08:34;78.32;;;37.25;;
72478;SDS011;60658;52.246;5.258;2022-10-15T06:09:35;83.30;;;38.20;;
72478;SDS011;60658;52.246;5.258;2022-10-15T06:10:36;91.97;;;40.63;;
72478;SDS011;60658;52.246;5.258;2022-10-15T06:11:37;87.28;;;39.10;;
72478;SDS011;60658;52.246;5.258;2022-10-15T06:12:37;86.03;;;39.20;;
72478;SDS011;60658;52.246;5.258;2022-10-15T06:13:41;88.38;;;39.30;;
72478;SDS011;60658;52.246;5.258;2022-10-15T06:14:45;117.60;;;42.80;;
72478;SDS011;60658;52.246;5.258;2022-10-15T06:15:46;103.75;;;41.80;;
72478;SDS011;60658;52.246;5.258;2022-10-15T06:16:46;95.22;;;41.80;;
72478;SDS011;60658;52.246;5.258;2022-10-15T06:17:51;106.10;;;40.38;;
72478;SDS011;60658;52.246;5.258;2022-10-15T06:18:52;117.13;;;43.67;;
72478;SDS011;60658;52.246;5.258;2022-10-15T06:19:53;95.20;;;40.13;;
72478;SDS011;60658;52.246;5.258;2022-10-15T06:20:56;103.00;;;41.17;;
72478;SDS011;60658;52.246;5.258;2022-10-15T06:21:58;127.70;;;43.28;;
72478;SDS011;60658;52.246;5.258;2022-10-15T06:22:59;95.93;;;38.58;;
72478;SDS011;60658;52.246;5.258;2022-10-15T06:24:00;95.90;;;38.80;;
72478;SDS011;60658;52.246;5.258;2022-10-15T06:25:03;91.97;;;38.30;;
72478;SDS011;60658;52.246;5.258;2022-10-15T06:26:05;90.05;;;36.92;;
72478;SDS011;60658;52.246;5.258;2022-10-15T06:27:06;95.03;;;39.35;;
72478;SDS011;60658;52.246;5.258;2022-10-15T06:28:07;99.43;;;39.38;;
72478;SDS011;60658;52.246;5.258;2022-10-15T06:29:08;93.97;;;37.60;;
72478;SDS011;60658;52.246;5.258;2022-10-15T06:30:09;110.38;;;39.80;;
72478;SDS011;60658;52.246;5.258;2022-10-15T06:31:10;104.03;;;39.05;;
72478;SDS011;60658;52.246;5.258;2022-10-15T06:32:11;98.65;;;38.28;;
72478;SDS011;60658;52.246;5.258;2022-10-15T06:33:11;89.18;;;38.03;;
72478;SDS011;60658;52.246;5.258;2022-10-15T06:34:12;101.45;;;37.90;;
72478;SDS011;60658;52.246;5.258;2022-10-15T06:35:12;108.35;;;38.78;;
72478;SDS011;60658;52.246;5.258;2022-10-15T06:36:19;94.93;;;37.08;;
72478;SDS011;60658;52.246;5.258;2022-10-15T06:37:21;108.30;;;38.15;;
72478;SDS011;60658;52.246;5.258;2022-10-15T06:38:22;107.85;;;37.30;;
72478;SDS011;60658;52.246;5.258;2022-10-15T06:39:25;110.93;;;37.72;;
72478;SDS011;60658;52.246;5.258;2022-10-15T06:40:35;87.20;;;36.25;;
72478;SDS011;60658;52.246;5.258;2022-10-15T06:41:37;102.85;;;37.17;;
72478;SDS011;60658;52.246;5.258;2022-10-15T06:42:37;111.35;;;39.70;;
72478;SDS011;60658;52.246;5.258;2022-10-15T06:43:38;109.80;;;38.42;;
72478;SDS011;60658;52.246;5.258;2022-10-15T06:44:39;102.53;;;37.50;;
72478;SDS011;60658;52.246;5.258;2022-10-15T06:45:40;102.57;;;36.10;;
72478;SDS011;60658;52.246;5.258;2022-10-15T06:46:44;104.00;;;37.55;;
72478;SDS011;60658;52.246;5.258;2022-10-15T06:47:44;107.72;;;37.10;;
72478;SDS011;60658;52.246;5.258;2022-10-15T06:48:45;117.43;;;36.30;;
72478;SDS011;60658;52.246;5.258;2022-10-15T06:49:46;102.13;;;34.20;;
72478;SDS011;60658;52.246;5.258;2022-10-15T06:50:49;102.35;;;33.92;;
72478;SDS011;60658;52.246;5.258;2022-10-15T06:51:50;101.90;;;34.95;;
72478;SDS011;60658;52.246;5.258;2022-10-15T06:52:52;103.90;;;36.22;;
72478;SDS011;60658;52.246;5.258;2022-10-15T06:53:53;113.60;;;36.53;;
72478;SDS011;60658;52.246;5.258;2022-10-15T06:54:54;99.93;;;35.90;;
72478;SDS011;60658;52.246;5.258;2022-10-15T06:55:55;109.72;;;35.33;;
72478;SDS011;60658;52.246;5.258;2022-10-15T06:56:56;100.72;;;35.33;;
72478;SDS011;60658;52.246;5.258;2022-10-15T06:57:56;116.65;;;35.55;;
72478;SDS011;60658;52.246;5.258;2022-10-15T06:58:57;103.63;;;36.70;;
72478;SDS011;60658;52.246;5.258;2022-10-15T06:59:58;98.93;;;35.33;;
72478;SDS011;60658;52.246;5.258;2022-10-15T07:00:59;115.35;;;36.92;;
72478;SDS011;60658;52.246;5.258;2022-10-15T07:01:59;96.40;;;34.50;;
72478;SDS011;60658;52.246;5.258;2022-10-15T07:03:01;103.75;;;34.90;;
72478;SDS011;60658;52.246;5.258;2022-10-15T07:04:02;102.07;;;34.72;;
72478;SDS011;60658;52.246;5.258;2022-10-15T07:05:03;92.88;;;33.28;;
72478;SDS011;60658;52.246;5.258;2022-10-15T07:06:04;100.60;;;32.67;;
72478;SDS011;60658;52.246;5.258;2022-10-15T07:07:05;104.35;;;33.00;;
72478;SDS011;60658;52.246;5.258;2022-10-15T07:08:10;100.55;;;32.85;;
72478;SDS011;60658;52.246;5.258;2022-10-15T07:09:10;99.65;;;33.40;;
72478;SDS011;60658;52.246;5.258;2022-10-15T07:10:14;101.15;;;33.22;;
72478;SDS011;60658;52.246;5.258;2022-10-15T07:11:14;105.97;;;32.75;;
72478;SDS011;60658;52.246;5.258;2022-10-15T07:12:15;102.90;;;31.48;;
72478;SDS011;60658;52.246;5.258;2022-10-15T07:13:16;101.57;;;32.00;;
72478;SDS011;60658;52.246;5.258;2022-10-15T07:14:16;93.53;;;32.40;;
72478;SDS011;60658;52.246;5.258;2022-10-15T07:15:17;105.85;;;31.67;;
72478;SDS011;60658;52.246;5.258;2022-10-15T07:16:18;111.82;;;32.08;;
72478;SDS011;60658;52.246;5.258;2022-10-15T07:17:18;100.28;;;31.88;;
72478;SDS011;60658;52.246;5.258;2022-10-15T07:18:19;96.45;;;30.80;;
72478;SDS011;60658;52.246;5.258;2022-10-15T07:19:20;98.22;;;30.55;;
72478;SDS011;60658;52.246;5.258;2022-10-15T07:20:20;98.53;;;30.33;;
72478;SDS011;60658;52.246;5.258;2022-10-15T07:21:21;92.00;;;29.33;;
72478;SDS011;60658;52.246;5.258;2022-10-15T07:22:22;121.15;;;32.20;;
72478;SDS011;60658;52.246;5.258;2022-10-15T07:23:24;102.75;;;30.08;;
72478;SDS011;60658;52.246;5.258;2022-10-15T07:24:25;102.78;;;32.10;;
72478;SDS011;60658;52.246;5.258;2022-10-15T07:25:26;98.10;;;29.70;;
72478;SDS011;60658;52.246;5.258;2022-10-15T07:26:26;100.57;;;31.70;;
72478;SDS011;60658;52.246;5.258;2022-10-15T07:27:27;100.68;;;30.33;;
72478;SDS011;60658;52.246;5.258;2022-10-15T07:28:27;102.30;;;30.00;;
72478;SDS011;60658;52.246;5.258;2022-10-15T07:29:28;89.18;;;28.55;;
72478;SDS011;60658;52.246;5.258;2022-10-15T07:30:31;95.75;;;29.52;;
72478;SDS011;60658;52.246;5.258;2022-10-15T07:31:35;91.18;;;28.90;;
72478;SDS011;60658;52.246;5.258;2022-10-15T07:32:39;97.75;;;29.75;;
72478;SDS011;60658;52.246;5.258;2022-10-15T07:33:57;91.35;;;28.92;;
72478;SDS011;60658;52.246;5.258;2022-10-15T07:35:07;104.78;;;31.13;;
72478;SDS011;60658;52.246;5.258;2022-10-15T07:36:08;91.22;;;28.77;;
72478;SDS011;60658;52.246;5.258;2022-10-15T07:37:09;93.03;;;30.33;;
72478;SDS011;60658;52.246;5.258;2022-10-15T07:38:10;107.93;;;31.63;;
72478;SDS011;60658;52.246;5.258;2022-10-15T07:39:19;108.95;;;30.13;;
72478;SDS011;60658;52.246;5.258;2022-10-15T07:40:23;104.63;;;30.85;;
72478;SDS011;60658;52.246;5.258;2022-10-15T07:41:27;109.90;;;30.05;;
72478;SDS011;60658;52.246;5.258;2022-10-15T07:42:30;89.55;;;29.60;;
72478;SDS011;60658;52.246;5.258;2022-10-15T07:43:31;87.55;;;30.55;;
72478;SDS011;60658;52.246;5.258;2022-10-15T07:44:33;99.97;;;32.13;;
72478;SDS011;60658;52.246;5.258;2022-10-15T07:45:34;114.30;;;30.48;;
72478;SDS011;60658;52.246;5.258;2022-10-15T07:46:37;107.05;;;30.90;;
72478;SDS011;60658;52.246;5.258;2022-10-15T07:47:38;104.97;;;29.92;;
72478;SDS011;60658;52.246;5.258;2022-10-15T07:48:39;110.60;;;31.58;;
72478;SDS011;60658;52.246;5.258;2022-10-15T07:49:40;94.45;;;29.75;;
72478;SDS011;60658;52.246;5.258;2022-10-15T07:50:43;115.80;;;31.20;;
72478;SDS011;60658;52.246;5.258;2022-10-15T07:51:46;97.70;;;31.15;;
72478;SDS011;60658;52.246;5.258;2022-10-15T07:52:50;89.90;;;30.50;;
72478;SDS011;60658;52.246;5.258;2022-10-15T07:53:52;99.20;;;30.00;;
72478;SDS011;60658;52.246;5.258;2022-10-15T07:54:56;77.90;;;28.38;;
72478;SDS011;60658;52.246;5.258;2022-10-15T07:55:58;102.20;;;30.45;;
72478;SDS011;60658;52.246;5.258;2022-10-15T07:56:58;82.00;;;29.20;;
72478;SDS011;60658;52.246;5.258;2022-10-15T07:58:02;98.15;;;28.95;;
72478;SDS011;60658;52.246;5.258;2022-10-15T07:59:03;82.45;;;27.17;;
72478;SDS011;60658;52.246;5.258;2022-10-15T08:00:04;82.15;;;27.63;;
72478;SDS011;60658;52.246;5.258;2022-10-15T08:01:08;88.65;;;28.15;;
72478;SDS011;60658;52.246;5.258;2022-10-15T08:02:10;75.20;;;27.73;;
72478;SDS011;60658;52.246;5.258;2022-10-15T08:03:14;71.55;;;26.23;;
72478;SDS011;60658;52.246;5.258;2022-10-15T08:04:17;80.15;;;25.10;;
72478;SDS011;60658;52.246;5.258;2022-10-15T08:05:21;69.32;;;24.42;;
72478;SDS011;60658;52.246;5.258;2022-10-15T08:06:22;64.35;;;22.95;;
72478;SDS011;60658;52.246;5.258;2022-10-15T08:07:23;66.28;;;24.00;;
72478;SDS011;60658;52.246;5.258;2022-10-15T08:08:24;72.22;;;24.45;;
72478;SDS011;60658;52.246;5.258;2022-10-15T08:09:24;69.47;;;23.67;;
72478;SDS011;60658;52.246;5.258;2022-10-15T08:10:27;63.08;;;24.73;;
72478;SDS011;60658;52.246;5.258;2022-10-15T08:11:28;62.28;;;22.73;;
72478;SDS011;60658;52.246;5.258;2022-10-15T08:12:29;60.33;;;22.58;;
72478;SDS011;60658;52.246;5.258;2022-10-15T08:13:32;57.33;;;21.52;;
72478;SDS011;60658;52.246;5.258;2022-10-15T08:14:33;52.47;;;20.88;;
72478;SDS011;60658;52.246;5.258;2022-10-15T08:15:34;54.38;;;21.98;;
72478;SDS011;60658;52.246;5.258;2022-10-15T08:16:40;60.95;;;21.50;;
72478;SDS011;60658;52.246;5.258;2022-10-15T08:17:43;58.00;;;21.85;;
72478;SDS011;60658;52.246;5.258;2022-10-15T08:18:43;54.78;;;20.48;;
72478;SDS011;60658;52.246;5.258;2022-10-15T08:19:47;49.33;;;20.13;;
72478;SDS011;60658;52.246;5.258;2022-10-15T08:20:50;49.05;;;21.00;;
72478;SDS011;60658;52.246;5.258;2022-10-15T08:21:54;52.08;;;20.60;;
72478;SDS011;60658;52.246;5.258;2022-10-15T08:22:55;55.15;;;20.50;;
72478;SDS011;60658;52.246;5.258;2022-10-15T08:23:56;47.35;;;20.17;;
72478;SDS011;60658;52.246;5.258;2022-10-15T08:25:07;52.88;;;21.40;;
72478;SDS011;60658;52.246;5.258;2022-10-15T08:26:28;46.92;;;19.40;;
72478;SDS011;60658;52.246;5.258;2022-10-15T08:27:39;45.97;;;19.02;;
72478;SDS011;60658;52.246;5.258;2022-10-15T08:28:43;49.03;;;20.13;;
72478;SDS011;60658;52.246;5.258;2022-10-15T08:29:44;47.88;;;20.02;;
72478;SDS011;60658;52.246;5.258;2022-10-15T08:30:47;46.42;;;19.48;;
72478;SDS011;60658;52.246;5.258;2022-10-15T08:31:51;43.47;;;18.70;;
72478;SDS011;60658;52.246;5.258;2022-10-15T08:32:54;44.67;;;18.10;;
72478;SDS011;60658;52.246;5.258;2022-10-15T08:33:55;41.47;;;19.38;;
72478;SDS011;60658;52.246;5.258;2022-10-15T08:34:59;42.50;;;18.58;;
72478;SDS011;60658;52.246;5.258;2022-10-15T08:35:59;41.72;;;18.08;;
72478;SDS011;60658;52.246;5.258;2022-10-15T08:37:01;45.92;;;18.80;;
72478;SDS011;60658;52.246;5.258;2022-10-15T08:38:02;41.95;;;18.48;;
72478;SDS011;60658;52.246;5.258;2022-10-15T08:39:03;40.92;;;17.38;;
72478;SDS011;60658;52.246;5.258;2022-10-15T08:40:04;42.65;;;19.08;;
72478;SDS011;60658;52.246;5.258;2022-10-15T08:41:10;40.92;;;18.67;;
72478;SDS011;60658;52.246;5.258;2022-10-15T08:42:15;38.55;;;18.33;;
72478;SDS011;60658;52.246;5.258;2022-10-15T08:43:24;36.33;;;17.42;;
72478;SDS011;60658;52.246;5.258;2022-10-15T08:44:28;38.17;;;17.83;;
72478;SDS011;60658;52.246;5.258;2022-10-15T08:45:30;41.88;;;18.17;;
72478;SDS011;60658;52.246;5.258;2022-10-15T08:46:35;36.58;;;17.40;;
72478;SDS011;60658;52.246;5.258;2022-10-15T08:47:38;34.92;;;17.08;;
72478;SDS011;60658;52.246;5.258;2022-10-15T08:48:40;38.42;;;17.58;;
72478;SDS011;60658;52.246;5.258;2022-10-15T08:49:43;35.47;;;16.95;;
72478;SDS011;60658;52.246;5.258;2022-10-15T08:50:45;35.50;;;16.08;;
72478;SDS011;60658;52.246;5.258;2022-10-15T08:51:47;34.92;;;17.08;;
72478;SDS011;60658;52.246;5.258;2022-10-15T08:52:50;31.13;;;16.05;;
72478;SDS011;60658;52.246;5.258;2022-10-15T08:53:57;35.40;;;16.40;;
72478;SDS011;60658;52.246;5.258;2022-10-15T08:54:58;34.08;;;16.55;;
72478;SDS011;60658;52.246;5.258;2022-10-15T08:56:02;35.67;;;17.40;;
72478;SDS011;60658;52.246;5.258;2022-10-15T08:57:07;35.60;;;16.48;;
72478;SDS011;60658;52.246;5.258;2022-10-15T08:58:11;31.23;;;15.98;;
72478;SDS011;60658;52.246;5.258;2022-10-15T08:59:16;35.25;;;16.25;;
72478;SDS011;60658;52.246;5.258;2022-10-15T09:00:24;31.90;;;15.52;;
72478;SDS011;60658;52.246;5.258;2022-10-15T09:01:29;34.03;;;16.27;;
72478;SDS011;60658;52.246;5.258;2022-10-15T09:02:33;32.28;;;14.88;;
72478;SDS011;60658;52.246;5.258;2022-10-15T09:03:35;32.38;;;15.55;;
72478;SDS011;60658;52.246;5.258;2022-10-15T09:04:40;34.13;;;16.42;;
72478;SDS011;60658;52.246;5.258;2022-10-15T09:05:42;32.88;;;15.60;;
72478;SDS011;60658;52.246;5.258;2022-10-15T09:06:44;34.03;;;16.27;;
72478;SDS011;60658;52.246;5.258;2022-10-15T09:07:46;26.40;;;13.48;;
72478;SDS011;60658;52.246;5.258;2022-10-15T09:08:55;29.45;;;15.07;;
72478;SDS011;60658;52.246;5.258;2022-10-15T09:10:00;27.88;;;14.70;;
72478;SDS011;60658;52.246;5.258;2022-10-15T09:11:06;27.75;;;14.10;;
72478;SDS011;60658;52.246;5.258;2022-10-15T09:12:16;24.27;;;14.18;;
72478;SDS011;60658;52.246;5.258;2022-10-15T09:13:22;26.35;;;14.70;;
72478;SDS011;60658;52.246;5.258;2022-10-15T09:14:25;24.33;;;13.63;;
72478;SDS011;60658;52.246;5.258;2022-10-15T09:15:27;27.10;;;14.35;;
72478;SDS011;60658;52.246;5.258;2022-10-15T09:16:33;25.27;;;13.25;;
72478;SDS011;60658;52.246;5.258;2022-10-15T09:17:35;22.85;;;12.98;;
72478;SDS011;60658;52.246;5.258;2022-10-15T09:18:40;26.92;;;14.35;;
72478;SDS011;60658;52.246;5.258;2022-10-15T09:19:44;24.05;;;13.50;;
72478;SDS011;60658;52.246;5.258;2022-10-15T09:20:45;25.52;;;13.25;;
72478;SDS011;60658;52.246;5.258;2022-10-15T09:21:47;22.40;;;12.90;;
72478;SDS011;60658;52.246;5.258;2022-10-15T09:22:48;22.90;;;12.77;;
72478;SDS011;60658;52.246;5.258;2022-10-15T09:23:49;23.33;;;12.82;;
72478;SDS011;60658;52.246;5.258;2022-10-15T09:24:50;22.83;;;12.57;;
72478;SDS011;60658;52.246;5.258;2022-10-15T09:25:53;23.85;;;12.48;;
72478;SDS011;60658;52.246;5.258;2022-10-15T09:26:58;24.25;;;13.60;;
72478;SDS011;60658;52.246;5.258;2022-10-15T09:28:01;23.05;;;13.13;;
72478;SDS011;60658;52.246;5.258;2022-10-15T09:29:12;20.02;;;11.70;;
72478;SDS011;60658;52.246;5.258;2022-10-15T09:31:34;23.63;;;13.00;;
72478;SDS011;60658;52.246;5.258;2022-10-15T09:33:38;22.02;;;12.00;;
72478;SDS011;60658;52.246;5.258;2022-10-15T09:34:41;21.35;;;12.13;;
72478;SDS011;60658;52.246;5.258;2022-10-15T09:35:44;22.88;;;12.55;;
72478;SDS011;60658;52.246;5.258;2022-10-15T09:36:47;21.83;;;12.00;;
72478;SDS011;60658;52.246;5.258;2022-10-15T09:37:51;20.45;;;11.35;;
72478;SDS011;60658;52.246;5.258;2022-10-15T09:38:57;21.38;;;11.73;;
72478;SDS011;60658;52.246;5.258;2022-10-15T09:40:02;21.25;;;11.63;;
72478;SDS011;60658;52.246;5.258;2022-10-15T09:41:11;21.65;;;12.07;;
72478;SDS011;60658;52.246;5.258;2022-10-15T09:42:19;21.17;;;11.90;;
72478;SDS011;60658;52.246;5.258;2022-10-15T09:44:53;21.35;;;11.88;;
72478;SDS011;60658;52.246;5.258;2022-10-15T09:46:01;21.73;;;12.43;;
72478;SDS011;60658;52.246;5.258;2022-10-15T09:50:19;18.90;;;10.82;;
72478;SDS011;60658;52.246;5.258;2022-10-15T09:54:23;20.48;;;11.32;;
72478;SDS011;60658;52.246;5.258;2022-10-15T09:55:40;20.40;;;11.25;;
72478;SDS011;60658;52.246;5.258;2022-10-15T09:56:51;20.52;;;11.25;;
72478;SDS011;60658;52.246;5.258;2022-10-15T09:57:58;21.65;;;11.38;;
72478;SDS011;60658;52.246;5.258;2022-10-15T09:59:35;22.75;;;12.25;;
72478;SDS011;60658;52.246;5.258;2022-10-15T10:00:55;23.35;;;12.30;;
72478;SDS011;60658;52.246;5.258;2022-10-15T14:31:20;4.22;;;2.58;;
72478;SDS011;60658;52.246;5.258;2022-10-15T15:17:58;2.70;;;0.60;;
72478;SDS011;60658;52.246;5.258;2022-10-15T15:19:11;3.10;;;0.90;;
72478;SDS011;60658;52.246;5.258;2022-10-15T15:20:21;1.70;;;0.60;;
72478;SDS011;60658;52.246;5.258;2022-10-15T15:49:24;3.08;;;0.75;;
72478;SDS011;60658;52.246;5.258;2022-10-15T15:50:24;3.28;;;0.85;;
72478;SDS011;60658;52.246;5.258;2022-10-15T15:51:30;4.75;;;0.82;;
72478;SDS011;60658;52.246;5.258;2022-10-15T15:52:31;2.72;;;0.80;;
72478;SDS011;60658;52.246;5.258;2022-10-15T15:53:39;4.88;;;0.82;;
72478;SDS011;60658;52.246;5.258;2022-10-15T15:54:41;4.50;;;0.80;;
72478;SDS011;60658;52.246;5.258;2022-10-15T15:55:43;3.80;;;0.82;;
72478;SDS011;60658;52.246;5.258;2022-10-15T15:56:44;1.77;;;0.80;;
72478;SDS011;60658;52.246;5.258;2022-10-15T15:58:00;2.65;;;0.60;;
72478;SDS011;60658;52.246;5.258;2022-10-15T15:59:03;6.18;;;1.10;;
72478;SDS011;60658;52.246;5.258;2022-10-15T16:00:08;3.22;;;1.05;;
72478;SDS011;60658;52.246;5.258;2022-10-15T16:01:09;4.53;;;1.10;;
72478;SDS011;60658;52.246;5.258;2022-10-15T16:02:10;5.93;;;0.80;;
72478;SDS011;60658;52.246;5.258;2022-10-15T16:03:11;3.35;;;0.60;;
72478;SDS011;60658;52.246;5.258;2022-10-15T16:04:12;5.38;;;1.25;;
72478;SDS011;60658;52.246;5.258;2022-10-15T16:05:15;2.92;;;0.88;;
72478;SDS011;60658;52.246;5.258;2022-10-15T16:06:15;4.28;;;1.00;;
72478;SDS011;60658;52.246;5.258;2022-10-15T16:07:16;4.70;;;0.98;;
72478;SDS011;60658;52.246;5.258;2022-10-15T16:08:17;3.35;;;0.70;;
72478;SDS011;60658;52.246;5.258;2022-10-15T16:09:18;4.03;;;0.75;;
72478;SDS011;60658;52.246;5.258;2022-10-15T16:10:19;3.03;;;0.70;;
72478;SDS011;60658;52.246;5.258;2022-10-15T16:11:19;5.03;;;0.80;;
72478;SDS011;60658;52.246;5.258;2022-10-15T16:12:20;5.28;;;0.75;;
72478;SDS011;60658;52.246;5.258;2022-10-15T16:13:21;3.45;;;0.77;;
72478;SDS011;60658;52.246;5.258;2022-10-15T16:14:21;4.63;;;0.90;;
72478;SDS011;60658;52.246;5.258;2022-10-15T16:15:22;4.63;;;0.77;;
72478;SDS011;60658;52.246;5.258;2022-10-15T16:16:23;2.88;;;0.90;;
72478;SDS011;60658;52.246;5.258;2022-10-15T16:17:23;4.50;;;0.80;;
72478;SDS011;60658;52.246;5.258;2022-10-15T16:18:24;3.08;;;0.60;;
72478;SDS011;60658;52.246;5.258;2022-10-15T16:19:25;3.28;;;0.63;;
72478;SDS011;60658;52.246;5.258;2022-10-15T16:20:27;2.00;;;0.70;;
72478;SDS011;60658;52.246;5.258;2022-10-15T16:21:29;2.90;;;0.75;;
72478;SDS011;60658;52.246;5.258;2022-10-15T16:22:30;2.45;;;0.70;;
72478;SDS011;60658;52.246;5.258;2022-10-15T16:23:31;3.72;;;0.90;;
72478;SDS011;60658;52.246;5.258;2022-10-15T16:24:31;5.45;;;0.80;;
72478;SDS011;60658;52.246;5.258;2022-10-15T16:25:32;5.97;;;1.10;;
72478;SDS011;60658;52.246;5.258;2022-10-15T16:26:33;2.10;;;0.80;;
72478;SDS011;60658;52.246;5.258;2022-10-15T16:27:33;2.67;;;0.70;;
72478;SDS011;60658;52.246;5.258;2022-10-15T16:28:37;4.25;;;0.60;;
72478;SDS011;60658;52.246;5.258;2022-10-15T16:29:37;2.75;;;0.60;;
72478;SDS011;60658;52.246;5.258;2022-10-15T16:30:38;3.13;;;0.63;;
72478;SDS011;60658;52.246;5.258;2022-10-15T16:31:39;4.38;;;0.73;;
72478;SDS011;60658;52.246;5.258;2022-10-15T16:32:39;3.33;;;0.80;;
72478;SDS011;60658;52.246;5.258;2022-10-15T16:33:40;2.38;;;0.60;;
72478;SDS011;60658;52.246;5.258;2022-10-15T16:34:40;4.32;;;0.90;;
72478;SDS011;60658;52.246;5.258;2022-10-15T16:35:43;4.22;;;0.90;;
72478;SDS011;60658;52.246;5.258;2022-10-15T16:36:43;3.33;;;1.00;;
72478;SDS011;60658;52.246;5.258;2022-10-15T16:37:44;6.80;;;1.02;;
72478;SDS011;60658;52.246;5.258;2022-10-15T16:38:45;5.47;;;0.90;;
72478;SDS011;60658;52.246;5.258;2022-10-15T16:39:45;2.40;;;0.90;;
72478;SDS011;60658;52.246;5.258;2022-10-15T16:40:46;4.88;;;0.90;;
72478;SDS011;60658;52.246;5.258;2022-10-15T16:41:46;3.10;;;1.00;;
72478;SDS011;60658;52.246;5.258;2022-10-15T16:42:47;5.00;;;0.70;;
72478;SDS011;60658;52.246;5.258;2022-10-15T16:43:48;3.65;;;0.65;;
72478;SDS011;60658;52.246;5.258;2022-10-15T16:44:49;3.78;;;0.85;;
72478;SDS011;60658;52.246;5.258;2022-10-15T16:46:02;4.75;;;0.70;;
72478;SDS011;60658;52.246;5.258;2022-10-15T16:47:13;4.85;;;0.80;;
72478;SDS011;60658;52.246;5.258;2022-10-15T16:48:13;4.40;;;0.80;;
72478;SDS011;60658;52.246;5.258;2022-10-15T16:49:14;3.13;;;1.00;;
72478;SDS011;60658;52.246;5.258;2022-10-15T16:50:15;4.43;;;1.65;;
72478;SDS011;60658;52.246;5.258;2022-10-15T16:51:17;3.78;;;1.02;;
72478;SDS011;60658;52.246;5.258;2022-10-15T16:52:18;6.90;;;1.90;;
72478;SDS011;60658;52.246;5.258;2022-10-15T16:53:18;9.82;;;3.90;;
72478;SDS011;60658;52.246;5.258;2022-10-15T16:54:19;8.00;;;3.90;;
72478;SDS011;60658;52.246;5.258;2022-10-15T16:55:20;8.02;;;2.45;;
72478;SDS011;60658;52.246;5.258;2022-10-15T16:56:21;4.78;;;1.63;;
72478;SDS011;60658;52.246;5.258;2022-10-15T16:57:22;2.83;;;1.10;;
72478;SDS011;60658;52.246;5.258;2022-10-15T16:58:23;6.45;;;1.00;;
72478;SDS011;60658;52.246;5.258;2022-10-15T16:59:26;5.22;;;1.00;;
72478;SDS011;60658;52.246;5.258;2022-10-15T17:00:27;2.28;;;1.10;;
72478;SDS011;60658;52.246;5.258;2022-10-15T17:01:27;2.55;;;0.82;;
72478;SDS011;60658;52.246;5.258;2022-10-15T17:02:28;5.50;;;1.15;;
72478;SDS011;60658;52.246;5.258;2022-10-15T17:03:29;5.65;;;1.20;;
72478;SDS011;60658;52.246;5.258;2022-10-15T17:04:30;1.90;;;0.82;;
72478;SDS011;60658;52.246;5.258;2022-10-15T17:05:30;3.60;;;0.90;;
72478;SDS011;60658;52.246;5.258;2022-10-15T17:06:32;4.35;;;1.50;;
72478;SDS011;60658;52.246;5.258;2022-10-15T17:07:33;3.00;;;1.05;;
72478;SDS011;60658;52.246;5.258;2022-10-15T17:08:35;3.63;;;1.10;;
72478;SDS011;60658;52.246;5.258;2022-10-15T17:09:37;2.65;;;1.33;;
72478;SDS011;60658;52.246;5.258;2022-10-15T17:10:40;4.45;;;1.42;;
72478;SDS011;60658;52.246;5.258;2022-10-15T17:11:42;3.85;;;2.00;;
72478;SDS011;60658;52.246;5.258;2022-10-15T17:12:43;6.53;;;1.80;;
72478;SDS011;60658;52.246;5.258;2022-10-15T17:13:44;4.53;;;1.70;;
72478;SDS011;60658;52.246;5.258;2022-10-15T17:14:50;5.22;;;2.05;;
72478;SDS011;60658;52.246;5.258;2022-10-15T17:15:53;5.43;;;1.98;;
72478;SDS011;60658;52.246;5.258;2022-10-15T17:16:57;5.47;;;1.98;;
72478;SDS011;60658;52.246;5.258;2022-10-15T17:18:00;4.78;;;1.33;;
72478;SDS011;60658;52.246;5.258;2022-10-15T17:19:01;5.03;;;1.67;;
72478;SDS011;60658;52.246;5.258;2022-10-15T17:20:02;6.15;;;1.48;;
72478;SDS011;60658;52.246;5.258;2022-10-15T17:21:03;5.03;;;1.42;;
72478;SDS011;60658;52.246;5.258;2022-10-15T17:22:05;3.45;;;1.40;;
72478;SDS011;60658;52.246;5.258;2022-10-15T21:44:06;7.72;;;1.00;;
72478;SDS011;60658;52.246;5.258;2022-10-15T21:45:18;9.43;;;1.40;;
72478;SDS011;60658;52.246;5.258;2022-10-15T21:46:30;5.88;;;1.30;;
72478;SDS011;60658;52.246;5.258;2022-10-15T21:47:46;5.88;;;1.30;;
72478;SDS011;60658;52.246;5.258;2022-10-15T21:48:49;7.10;;;1.20;;
72478;SDS011;60658;52.246;5.258;2022-10-15T21:50:07;6.03;;;1.27;;
72478;SDS011;60658;52.246;5.258;2022-10-15T21:51:35;5.97;;;1.20;;
72478;SDS011;60658;52.246;5.258;2022-10-15T21:53:04;4.38;;;1.42;;
72478;SDS011;60658;52.246;5.258;2022-10-15T21:54:17;5.20;;;1.08;;
72478;SDS011;60658;52.246;5.258;2022-10-15T21:55:32;6.28;;;1.30;;
72478;SDS011;60658;52.246;5.258;2022-10-15T21:56:44;5.70;;;1.02;;
72478;SDS011;60658;52.246;5.258;2022-10-15T21:59:16;5.07;;;1.08;;
72478;SDS011;60658;52.246;5.258;2022-10-15T22:00:22;4.80;;;1.20;;
72478;SDS011;60658;52.246;5.258;2022-10-15T22:01:52;5.40;;;0.93;;
72478;SDS011;60658;52.246;5.258;2022-10-15T22:02:58;6.35;;;1.25;;
72478;SDS011;60658;52.246;5.258;2022-10-15T22:04:10;5.30;;;1.33;;
